createdAt,value
2023-02-26T00:01:17.792Z,100477.00
2023-02-26T00:04:19.336Z,100485.16
2023-02-26T00:07:20.824Z,100489.56
2023-02-26T00:10:22.295Z,100483.28
2023-02-26T00:13:24.370Z,100491.41
2023-02-26T00:16:36.322Z,100491.09
2023-02-26T00:19:38.249Z,100502.97
2023-02-26T00:22:40.741Z,100511.09
2023-02-26T00:25:42.331Z,100520.09
2023-02-26T00:28:44.266Z,100516.53
2023-02-26T00:31:46.102Z,100518.22
2023-02-26T00:34:48.406Z,100522.66
2023-02-26T00:38:00.249Z,100531.66
2023-02-26T00:41:01.846Z,100523.84
2023-02-26T00:44:03.767Z,100532.97
2023-02-26T00:47:14.786Z,100540.25
2023-02-26T00:50:18.888Z,100549.41
2023-02-26T00:53:28.810Z,100551.09
2023-02-26T00:56:30.356Z,100557.69
2023-02-26T00:59:31.842Z,100564.13
2023-02-26T01:02:35.412Z,100566.84
2023-02-26T01:05:37.290Z,100572.44
2023-02-26T01:08:53.024Z,100576.84
2023-02-26T01:11:57.403Z,100573.44
2023-02-26T01:14:59.223Z,100574.16
2023-02-26T01:18:10.691Z,100568.72
2023-02-26T01:21:19.192Z,100566.84
2023-02-26T01:24:22.921Z,100576.69
2023-02-26T01:27:24.586Z,100581.25
2023-02-26T01:30:26.782Z,100575.84
2023-02-26T01:33:32.776Z,100579.56
2023-02-26T01:36:41.616Z,100580.41
2023-02-26T01:40:00.565Z,100579.72
2023-02-26T01:43:16.862Z,100582.28
2023-02-26T01:46:26.118Z,100591.59
2023-02-26T01:49:28.001Z,100591.72
2023-02-26T01:52:32.440Z,100601.72
2023-02-26T01:55:35.620Z,100606.56
2023-02-26T01:58:37.842Z,100620.31
2023-02-26T02:01:40.331Z,100616.03
2023-02-26T02:04:44.122Z,100630.75
2023-02-26T02:07:45.639Z,100624.63
2023-02-26T02:10:48.984Z,100634.78
2023-02-26T02:14:07.961Z,100631.34
2023-02-26T02:17:19.423Z,100640.66
2023-02-26T02:20:27.630Z,100639.28
2023-02-26T02:23:54.100Z,100645.53
2023-02-26T02:27:37.780Z,100659.25
2023-02-26T02:31:07.395Z,100665.69
2023-02-26T02:34:19.408Z,100658.72
2023-02-26T02:37:29.312Z,100665.16
2023-02-26T02:40:37.414Z,100672.41
2023-02-26T02:43:42.260Z,100676.97
2023-02-26T02:46:47.304Z,100682.41
2023-02-26T02:49:58.319Z,100683.41
2023-02-26T02:53:21.128Z,100679.84
2023-02-26T02:56:30.478Z,100683.56
2023-02-26T02:59:43.816Z,100681.88
2023-02-26T03:02:54.319Z,100681.88
2023-02-26T03:05:55.960Z,100678.59
2023-02-26T03:08:58.941Z,100687.72
2023-02-26T03:12:00.629Z,100688.88
2023-02-26T03:15:02.954Z,100690.75
2023-02-26T03:18:34.901Z,100701.59
2023-02-26T03:21:50.025Z,100709.16
2023-02-26T03:25:21.968Z,100711.00
2023-02-26T03:28:31.470Z,100715.72
2023-02-26T03:31:44.201Z,100716.19
2023-02-26T03:35:09.575Z,100721.63
2023-02-26T03:38:45.993Z,100727.88
2023-02-26T03:41:58.005Z,100730.75
2023-02-26T03:45:13.109Z,100728.88
2023-02-26T03:48:20.403Z,100737.00
2023-02-26T03:51:24.429Z,100739.88
2023-02-26T03:54:51.730Z,100744.47
2023-02-26T03:58:13.590Z,100748.16
2023-02-26T04:01:59.459Z,100750.00
2023-02-26T04:05:09.040Z,100751.03
2023-02-26T04:08:10.704Z,100760.31
2023-02-26T04:11:17.323Z,100767.41
2023-02-26T04:14:19.108Z,100766.72
2023-02-26T04:17:20.702Z,100779.53
2023-02-26T04:20:22.555Z,100784.97
2023-02-26T04:23:24.341Z,100787.00
2023-02-26T04:26:26.208Z,100782.56
2023-02-26T04:29:28.535Z,100780.84
2023-02-26T04:32:30.167Z,100788.28
2023-02-26T04:35:31.742Z,100795.56
2023-02-26T04:38:33.331Z,100804.66
2023-02-26T04:41:34.802Z,100796.69
2023-02-26T04:44:37.137Z,100801.97
2023-02-26T04:47:38.653Z,100817.22
2023-02-26T04:50:40.800Z,100824.34
2023-02-26T04:53:42.318Z,100825.38
2023-02-26T04:56:44.418Z,100825.38
2023-02-26T04:59:45.983Z,100831.75
2023-02-26T05:02:48.020Z,100826.50
2023-02-26T05:05:49.744Z,100839.22
2023-02-26T05:08:51.375Z,100834.78
2023-02-26T05:11:53.635Z,100835.78
2023-02-26T05:14:55.137Z,100840.47
2023-02-26T05:17:56.684Z,100846.75
2023-02-26T05:20:58.819Z,100852.16
2023-02-26T05:24:00.651Z,100861.31
2023-02-26T05:27:02.208Z,100856.03
2023-02-26T05:30:06.363Z,100869.56
2023-02-26T05:33:10.101Z,100873.41
2023-02-26T05:36:12.551Z,100872.56
2023-02-26T05:39:14.056Z,100889.84
2023-02-26T05:42:16.037Z,100889.69
2023-02-26T05:45:18.293Z,100898.66
2023-02-26T05:48:19.922Z,100896.81
2023-02-26T05:51:21.500Z,100911.94
2023-02-26T05:54:23.083Z,100912.91
2023-02-26T05:57:24.716Z,100913.94
2023-02-26T06:00:26.407Z,100927.31
2023-02-26T06:03:28.083Z,100928.47
2023-02-26T06:06:29.575Z,100926.75
2023-02-26T06:09:31.097Z,100930.47
2023-02-26T06:12:32.635Z,100941.31
2023-02-26T06:15:34.264Z,100947.72
2023-02-26T06:18:35.731Z,100948.84
2023-02-26T06:21:37.212Z,100949.00
2023-02-26T06:24:38.664Z,100952.69
2023-02-26T06:27:40.158Z,100969.13
2023-02-26T06:30:41.801Z,100968.22
2023-02-26T06:33:43.317Z,100979.22
2023-02-26T06:36:45.262Z,100978.22
2023-02-26T06:39:46.792Z,100991.75
2023-02-26T06:42:48.342Z,100992.63
2023-02-26T06:45:49.953Z,100997.91
2023-02-26T06:48:51.460Z,101000.47
2023-02-26T06:51:52.953Z,101003.31
2023-02-26T06:54:54.429Z,101008.59
2023-02-26T06:57:57.122Z,101016.56
2023-02-26T07:00:58.639Z,101019.28
2023-02-26T07:04:00.199Z,101023.84
2023-02-26T07:07:01.697Z,101037.41
2023-02-26T07:10:03.953Z,101031.13
2023-02-26T07:13:05.534Z,101044.81
2023-02-26T07:16:07.572Z,101049.38
2023-02-26T07:19:09.113Z,101054.91
2023-02-26T07:22:10.563Z,101055.06
2023-02-26T07:25:13.123Z,101061.34
2023-02-26T07:28:14.597Z,101063.19
2023-02-26T07:31:16.662Z,101070.47
2023-02-26T07:34:18.344Z,101073.88
2023-02-26T07:37:19.819Z,101078.44
2023-02-26T07:40:21.332Z,101079.16
2023-02-26T07:43:23.700Z,101082.31
2023-02-26T07:46:25.530Z,101088.31
2023-02-26T07:49:27.339Z,101088.75
2023-02-26T07:52:29.018Z,101088.34
2023-02-26T07:55:30.528Z,101102.34
2023-02-26T07:58:32.092Z,101102.03
2023-02-26T08:01:33.636Z,101107.06
2023-02-26T08:04:35.155Z,101108.50
2023-02-26T08:07:37.554Z,101121.66
2023-02-26T08:10:42.325Z,101119.50
2023-02-26T08:13:43.905Z,101117.81
2023-02-26T08:16:45.407Z,101121.19
2023-02-26T08:19:46.951Z,101132.66
2023-02-26T08:22:48.511Z,101135.19
2023-02-26T08:25:50.347Z,101136.78
2023-02-26T08:28:51.972Z,101142.06
2023-02-26T08:31:53.597Z,101143.78
2023-02-26T08:34:55.656Z,101150.75
2023-02-26T08:37:57.508Z,101161.47
2023-02-26T08:40:59.019Z,101171.31
2023-02-26T08:44:01.192Z,101164.06
2023-02-26T08:47:03.658Z,101173.78
2023-02-26T08:50:07.069Z,101179.19
2023-02-26T08:53:08.710Z,101183.63
2023-02-26T08:56:10.205Z,101188.91
2023-02-26T08:59:12.983Z,101184.19
2023-02-26T09:02:14.931Z,101195.03
2023-02-26T09:05:17.430Z,101199.47
2023-02-26T09:08:20.512Z,101199.47
2023-02-26T09:11:22.080Z,101204.75
2023-02-26T09:14:23.582Z,101201.06
2023-02-26T09:17:25.993Z,101219.03
2023-02-26T09:20:27.709Z,101215.47
2023-02-26T09:23:29.721Z,101223.59
2023-02-26T09:26:31.241Z,101228.00
2023-02-26T09:29:33.067Z,101225.31
2023-02-26T09:32:34.706Z,101222.59
2023-02-26T09:35:36.641Z,101227.03
2023-02-26T09:38:38.228Z,101228.91
2023-02-26T09:42:07.545Z,101231.34
2023-02-26T09:45:20.961Z,101241.31
2023-02-26T09:48:24.382Z,101235.03
2023-02-26T09:51:27.106Z,101235.19
2023-02-26T09:54:33.914Z,101236.16
2023-02-26T09:57:39.042Z,101246.16
2023-02-26T10:00:47.459Z,101247.16
2023-02-26T10:04:07.285Z,101241.00
2023-02-26T10:07:08.917Z,101243.84
2023-02-26T10:11:15.331Z,101257.16
2023-02-26T10:14:43.198Z,101261.00
2023-02-26T10:18:12.447Z,101264.41
2023-02-26T10:21:33.227Z,101261.56
2023-02-26T10:24:46.988Z,101269.72
2023-02-26T10:27:58.256Z,101267.28
2023-02-26T10:31:46.127Z,101266.44
2023-02-26T10:35:11.514Z,101273.56
2023-02-26T10:38:18.122Z,101285.41
2023-02-26T10:41:28.262Z,101282.69
2023-02-26T10:44:37.376Z,101294.53
2023-02-26T10:47:44.390Z,101288.97
2023-02-26T10:50:52.977Z,101287.13
2023-02-26T10:54:03.727Z,101291.69
2023-02-26T10:57:09.200Z,101289.09
2023-02-26T11:00:19.175Z,101292.66
2023-02-26T11:03:23.732Z,101297.41
2023-02-26T11:06:42.021Z,101301.81
2023-02-26T11:09:45.805Z,101303.66
2023-02-26T11:12:47.738Z,101306.50
2023-02-26T11:15:52.334Z,101301.94
2023-02-26T11:18:55.705Z,101311.19
2023-02-26T11:21:59.674Z,101311.19
2023-02-26T11:25:02.453Z,101309.50
2023-02-26T11:28:18.519Z,101311.19
2023-02-26T11:31:22.256Z,101308.66
2023-02-26T11:34:26.291Z,101316.91
2023-02-26T11:37:31.065Z,101317.75
2023-02-26T11:40:38.683Z,101314.94
2023-02-26T11:43:44.935Z,101313.22
2023-02-26T11:46:56.457Z,101313.06
2023-02-26T11:50:05.527Z,101310.34
2023-02-26T11:53:17.297Z,101305.66
2023-02-26T11:56:40.351Z,101302.66
2023-02-26T11:59:41.858Z,101310.69
2023-02-26T12:02:43.753Z,101298.69
2023-02-26T12:05:45.449Z,101299.53
2023-02-26T12:08:48.093Z,101298.41
2023-02-26T12:12:12.779Z,101308.97
2023-02-26T12:15:42.771Z,101305.28
2023-02-26T12:18:59.312Z,101304.28
2023-02-26T12:22:19.301Z,101295.00
2023-02-26T12:25:39.563Z,101303.28
2023-02-26T12:29:07.046Z,101306.72
2023-02-26T12:32:30.341Z,101308.56
2023-02-26T12:35:43.508Z,101310.56
2023-02-26T12:39:01.710Z,101312.41
2023-02-26T12:42:28.206Z,101316.84
2023-02-26T12:45:47.633Z,101304.28
2023-02-26T12:48:57.997Z,101316.00
2023-02-26T12:52:31.520Z,101317.84
2023-02-26T12:55:48.257Z,101316.25
2023-02-26T12:59:23.224Z,101321.56
2023-02-26T13:02:43.057Z,101317.84
2023-02-26T13:05:53.656Z,101310.72
2023-02-26T13:09:14.087Z,101314.13
2023-02-26T13:12:27.919Z,101294.00
2023-02-26T13:16:07.941Z,101306.59
2023-02-26T13:19:30.677Z,101311.00
2023-02-26T13:22:40.885Z,101301.00
2023-02-26T13:25:52.390Z,101310.03
2023-02-26T13:29:11.971Z,101296.47
2023-02-26T13:32:22.358Z,101300.03
2023-02-26T13:35:32.245Z,101306.31
2023-02-26T13:39:11.236Z,101308.00
2023-02-26T13:42:27.414Z,101301.63
2023-02-26T13:45:44.285Z,101298.94
2023-02-26T13:48:52.959Z,101298.94
2023-02-26T13:51:55.079Z,101301.72
2023-02-26T13:54:59.293Z,101298.28
2023-02-26T13:58:27.666Z,101293.59
2023-02-26T14:01:34.154Z,101295.34
2023-02-26T14:04:49.736Z,101300.75
2023-02-26T14:07:57.195Z,101290.78
2023-02-26T14:11:25.267Z,101289.91
2023-02-26T14:14:36.642Z,101292.63
2023-02-26T14:17:39.628Z,101296.47
2023-02-26T14:20:41.283Z,101295.59
2023-02-26T14:23:48.574Z,101289.47
2023-02-26T14:27:07.317Z,101290.44
2023-02-26T14:30:08.961Z,101298.25
2023-02-26T14:33:17.114Z,101302.81
2023-02-26T14:36:26.231Z,101308.50
2023-02-26T14:39:38.810Z,101306.31
2023-02-26T14:42:59.096Z,101298.44
2023-02-26T14:46:02.133Z,101298.41
2023-02-26T14:49:05.068Z,101300.94
2023-02-26T14:52:15.429Z,101304.38
2023-02-26T14:55:41.287Z,101302.34
2023-02-26T14:59:01.298Z,101306.81
2023-02-26T15:02:25.052Z,101307.78
2023-02-26T15:05:43.654Z,101317.13
2023-02-26T15:09:03.445Z,101313.00
2023-02-26T15:12:05.089Z,101313.34
2023-02-26T15:15:27.865Z,101315.78
2023-02-26T15:18:53.501Z,101315.53
2023-02-26T15:22:44.473Z,101316.13
2023-02-26T15:25:48.206Z,101320.53
2023-02-26T15:28:51.200Z,101324.09
2023-02-26T15:31:56.640Z,101325.84
2023-02-26T15:35:17.095Z,101322.97
2023-02-26T15:38:19.150Z,101328.56
2023-02-26T15:41:22.179Z,101328.69
2023-02-26T15:44:30.735Z,101334.09
2023-02-26T15:47:32.894Z,101336.06
2023-02-26T15:50:39.063Z,101338.78
2023-02-26T15:53:47.901Z,101341.50
2023-02-26T15:56:50.391Z,101350.63
2023-02-26T16:00:01.123Z,101354.06
2023-02-26T16:03:04.516Z,101351.34
2023-02-26T16:06:11.142Z,101358.38
2023-02-26T16:09:17.181Z,101349.13
2023-02-26T16:12:20.014Z,101354.38
2023-02-26T16:15:31.919Z,101356.69
2023-02-26T16:18:34.966Z,101362.13
2023-02-26T16:21:40.156Z,101361.13
2023-02-26T16:24:41.771Z,101355.56
2023-02-26T16:27:44.428Z,101363.59
2023-02-26T16:30:54.062Z,101359.88
2023-02-26T16:34:07.652Z,101360.72
2023-02-26T16:37:24.515Z,101374.00
2023-02-26T16:40:27.459Z,101370.31
2023-02-26T16:43:49.261Z,101379.31
2023-02-26T16:46:52.701Z,101387.44
2023-02-26T16:49:54.307Z,101388.28
2023-02-26T16:53:04.462Z,101399.00
2023-02-26T16:56:06.242Z,101401.84
2023-02-26T16:59:17.167Z,101405.41
2023-02-26T17:02:24.920Z,101411.84
2023-02-26T17:05:31.052Z,101412.84
2023-02-26T17:08:36.517Z,101425.38
2023-02-26T17:11:44.346Z,101417.38
2023-02-26T17:14:52.275Z,101423.81
2023-02-26T17:17:56.706Z,101430.94
2023-02-26T17:21:04.062Z,101426.41
2023-02-26T17:24:05.985Z,101424.53
2023-02-26T17:27:10.029Z,101427.25
2023-02-26T17:30:16.099Z,101438.09
2023-02-26T17:33:18.165Z,101437.25
2023-02-26T17:36:21.221Z,101441.78
2023-02-26T17:39:23.077Z,101436.50
2023-02-26T17:42:24.579Z,101440.19
2023-02-26T17:45:26.155Z,101445.50
2023-02-26T17:48:27.720Z,101445.38
2023-02-26T17:51:29.444Z,101452.50
2023-02-26T17:54:31.191Z,101458.94
2023-02-26T17:57:32.652Z,101466.91
2023-02-26T18:00:39.639Z,101474.06
2023-02-26T18:03:41.506Z,101471.47
2023-02-26T18:06:43.133Z,101473.19
2023-02-26T18:09:46.786Z,101465.06
2023-02-26T18:12:48.444Z,101476.91
2023-02-26T18:15:52.112Z,101474.19
2023-02-26T18:18:54.160Z,101478.75
2023-02-26T18:21:55.807Z,101486.03
2023-02-26T18:24:57.294Z,101480.63
2023-02-26T18:28:02.111Z,101489.72
2023-02-26T18:31:08.599Z,101490.56
2023-02-26T18:34:10.340Z,101493.53
2023-02-26T18:37:18.551Z,101489.88
2023-02-26T18:40:22.699Z,101491.00
2023-02-26T18:43:24.257Z,101491.09
2023-02-26T18:46:26.981Z,101487.66
2023-02-26T18:49:28.584Z,101494.09
2023-02-26T18:52:30.075Z,101499.63
2023-02-26T18:55:31.597Z,101491.63
2023-02-26T18:58:33.155Z,101503.34
2023-02-26T19:01:34.843Z,101505.31
2023-02-26T19:04:36.410Z,101509.88
2023-02-26T19:07:38.206Z,101518.84
2023-02-26T19:10:39.990Z,101510.84
2023-02-26T19:13:41.502Z,101522.41
2023-02-26T19:16:43.694Z,101527.84
2023-02-26T19:19:45.687Z,101522.41
2023-02-26T19:22:47.252Z,101523.41
2023-02-26T19:25:51.412Z,101521.56
2023-02-26T19:28:52.920Z,101526.25
2023-02-26T19:31:54.559Z,101529.81
2023-02-26T19:34:56.834Z,101529.97
2023-02-26T19:37:58.392Z,101535.38
2023-02-26T19:41:00.560Z,101535.50
2023-02-26T19:44:02.072Z,101536.50
2023-02-26T19:47:03.820Z,101537.34
2023-02-26T19:50:06.053Z,101541.91
2023-02-26T19:53:07.588Z,101551.91
2023-02-26T19:56:09.470Z,101550.06
2023-02-26T19:59:12.274Z,101554.63
2023-02-26T20:02:14.802Z,101551.16
2023-02-26T20:05:17.856Z,101553.13
2023-02-26T20:08:25.529Z,101560.25
2023-02-26T20:11:27.447Z,101563.97
2023-02-26T20:14:29.197Z,101561.38
2023-02-26T20:17:30.667Z,101569.50
2023-02-26T20:20:32.129Z,101575.81
2023-02-26T20:23:36.951Z,101576.66
2023-02-26T20:26:38.584Z,101579.38
2023-02-26T20:29:40.199Z,101587.50
2023-02-26T20:32:41.820Z,101589.22
2023-02-26T20:35:45.914Z,101594.53
2023-02-26T20:38:47.504Z,101594.53
2023-02-26T20:41:50.402Z,101596.22
2023-02-26T20:44:51.864Z,101601.53
2023-02-26T20:47:53.340Z,101603.25
2023-02-26T20:51:02.705Z,101600.44
2023-02-26T20:54:04.546Z,101612.00
2023-02-26T20:57:06.153Z,101614.72
2023-02-26T21:00:11.216Z,101617.44
2023-02-26T21:03:12.876Z,101619.13
2023-02-26T21:06:14.425Z,101622.84
2023-02-26T21:09:16.707Z,101628.38
2023-02-26T21:12:18.296Z,101627.53
2023-02-26T21:15:20.123Z,101634.06
2023-02-26T21:18:21.614Z,101629.75
2023-02-26T21:21:23.256Z,101640.59
2023-02-26T21:24:24.864Z,101635.19
2023-02-26T21:27:26.425Z,101630.59
2023-02-26T21:30:28.843Z,101640.44
2023-02-26T21:33:30.643Z,101632.31
2023-02-26T21:36:32.137Z,101639.34
2023-02-26T21:39:34.678Z,101638.47
2023-02-26T21:42:36.278Z,101648.34
2023-02-26T21:45:39.049Z,101646.50
2023-02-26T21:48:40.572Z,101650.19
2023-02-26T21:51:42.063Z,101650.19
2023-02-26T21:54:43.808Z,101638.47
2023-02-26T21:57:45.472Z,101646.75
2023-02-26T22:00:47.001Z,101647.63
2023-02-26T22:03:48.688Z,101653.03
2023-02-26T22:06:50.341Z,101651.19
2023-02-26T22:09:51.835Z,101657.59
2023-02-26T22:12:53.311Z,101654.00
2023-02-26T22:15:54.880Z,101659.44
2023-02-26T22:18:56.413Z,101659.44
2023-02-26T22:21:57.931Z,101655.00
2023-02-26T22:24:59.576Z,101654.16
2023-02-26T22:28:01.049Z,101664.13
2023-02-26T22:31:02.864Z,101662.38
2023-02-26T22:34:04.415Z,101654.25
2023-02-26T22:37:05.914Z,101661.53
2023-02-26T22:40:08.650Z,101666.09
2023-02-26T22:43:10.237Z,101671.53
2023-02-26T22:46:11.956Z,101662.53
2023-02-26T22:49:13.476Z,101674.22
2023-02-26T22:52:15.221Z,101684.06
2023-02-26T22:55:17.064Z,101679.66
2023-02-26T22:58:18.558Z,101684.91
2023-02-26T23:01:20.571Z,101682.22
2023-02-26T23:04:22.149Z,101684.06
2023-02-26T23:07:23.668Z,101685.81
2023-02-26T23:10:25.206Z,101692.19
2023-02-26T23:13:30.183Z,101694.06
2023-02-26T23:16:31.792Z,101692.44
2023-02-26T23:19:33.261Z,101693.44
2023-02-26T23:22:34.735Z,101703.53
2023-02-26T23:25:36.229Z,101699.97
2023-02-26T23:28:37.935Z,101695.41
2023-02-26T23:31:40.060Z,101695.41
2023-02-26T23:34:41.593Z,101705.41
2023-02-26T23:37:43.067Z,101696.38
2023-02-26T23:40:44.530Z,101697.50
2023-02-26T23:43:46.021Z,101699.34
2023-02-26T23:46:47.620Z,101700.19
2023-02-26T23:49:49.146Z,101706.72
2023-02-26T23:52:50.821Z,101701.44
2023-02-26T23:55:58.726Z,101712.41
2023-02-26T23:59:00.210Z,101706.13
